createdAt,value
2022-11-18T00:02:05.230Z,54.60
2022-11-18T00:04:33.187Z,51.73
2022-11-18T00:07:01.060Z,50.90
2022-11-18T00:09:28.956Z,52.67
2022-11-18T00:12:14.313Z,60.23
2022-11-18T00:14:43.455Z,50.03
2022-11-18T00:17:11.220Z,49.70
2022-11-18T00:19:42.943Z,56.63
2022-11-18T00:22:12.682Z,53.60
2022-11-18T00:24:42.230Z,52.00
2022-11-18T00:27:09.884Z,54.87
2022-11-18T00:29:38.524Z,49.57
2022-11-18T00:32:07.792Z,56.20
2022-11-18T00:34:35.440Z,50.07
2022-11-18T00:37:03.270Z,53.53
2022-11-18T00:39:31.605Z,54.83
2022-11-18T00:42:16.810Z,57.17
2022-11-18T00:44:44.587Z,55.87
2022-11-18T00:47:13.582Z,50.87
2022-11-18T00:49:41.292Z,54.63
2022-11-18T00:52:09.055Z,59.23
2022-11-18T00:54:36.740Z,51.30
2022-11-18T00:57:05.284Z,49.43
2022-11-18T00:59:33.252Z,48.53
2022-11-18T01:02:01.165Z,45.80
2022-11-18T01:04:30.380Z,47.07
2022-11-18T01:06:58.263Z,47.83
2022-11-18T01:09:26.656Z,45.10
2022-11-18T01:12:12.157Z,45.23
2022-11-18T01:14:39.894Z,47.90
2022-11-18T01:17:07.502Z,47.37
2022-11-18T01:19:36.988Z,49.87
2022-11-18T01:22:04.680Z,41.20
2022-11-18T01:24:32.864Z,40.60
2022-11-18T01:27:00.545Z,42.13
2022-11-18T01:29:28.200Z,42.53
2022-11-18T01:32:22.654Z,42.33
2022-11-18T01:34:45.485Z,43.43
2022-11-18T01:37:13.440Z,40.00
2022-11-18T01:39:41.121Z,37.07
2022-11-18T01:42:13.533Z,36.73
2022-11-18T01:45:02.177Z,43.23
2022-11-18T01:47:32.530Z,40.50
2022-11-18T01:50:02.787Z,36.70
2022-11-18T01:52:30.834Z,43.63
2022-11-18T01:55:00.675Z,39.50
2022-11-18T01:57:30.593Z,38.40
2022-11-18T01:59:59.520Z,40.93
2022-11-18T02:02:28.303Z,37.57
2022-11-18T02:04:57.584Z,44.50
2022-11-18T02:07:26.876Z,42.67
2022-11-18T02:09:56.365Z,40.70
2022-11-18T02:12:24.204Z,40.03
2022-11-18T02:14:52.612Z,39.77
2022-11-18T02:17:27.431Z,42.83
2022-11-18T02:20:07.483Z,39.37
2022-11-18T02:22:47.511Z,42.90
2022-11-18T02:25:19.414Z,39.60
2022-11-18T02:28:07.867Z,37.73
2022-11-18T02:30:43.948Z,36.53
2022-11-18T02:33:13.667Z,35.83
2022-11-18T02:35:42.968Z,37.33
2022-11-18T02:38:12.939Z,40.37
2022-11-18T02:40:43.040Z,37.83
2022-11-18T02:43:12.771Z,44.27
2022-11-18T02:45:44.027Z,39.10
2022-11-18T02:48:13.418Z,39.27
2022-11-18T02:50:42.406Z,39.33
2022-11-18T02:53:12.082Z,37.67
2022-11-18T02:55:41.477Z,37.13
2022-11-18T02:58:09.939Z,36.43
2022-11-18T03:00:37.841Z,37.20
2022-11-18T03:03:20.550Z,38.67
2022-11-18T03:05:55.418Z,37.93
2022-11-18T03:08:27.060Z,40.73
2022-11-18T03:10:59.713Z,38.57
2022-11-18T03:13:30.485Z,39.67
2022-11-18T03:16:02.314Z,39.50
2022-11-18T03:18:34.660Z,38.30
2022-11-18T03:21:07.857Z,41.13
2022-11-18T03:23:37.506Z,44.47
2022-11-18T03:26:07.476Z,43.63
2022-11-18T03:28:37.167Z,43.40
2022-11-18T03:31:09.742Z,48.13
2022-11-18T03:33:40.175Z,43.63
2022-11-18T03:36:10.930Z,53.70
2022-11-18T03:38:40.864Z,44.80
2022-11-18T03:41:11.557Z,43.10
2022-11-18T03:43:41.242Z,50.20
2022-11-18T03:46:10.730Z,48.90
2022-11-18T03:48:42.345Z,46.50
2022-11-18T03:51:12.734Z,49.37
2022-11-18T03:53:41.608Z,47.10
2022-11-18T03:56:16.936Z,51.00
2022-11-18T03:58:48.686Z,47.57
2022-11-18T04:01:18.394Z,47.57
2022-11-18T04:03:46.301Z,44.70
2022-11-18T04:06:18.009Z,47.40
2022-11-18T04:08:47.950Z,47.27
2022-11-18T04:11:31.909Z,48.67
2022-11-18T04:14:00.410Z,50.73
2022-11-18T04:16:28.076Z,49.80
2022-11-18T04:18:56.032Z,55.80
2022-11-18T04:21:25.237Z,51.50
2022-11-18T04:23:53.013Z,51.43
2022-11-18T04:26:21.286Z,59.20
2022-11-18T04:28:49.096Z,55.13
2022-11-18T04:31:17.067Z,53.97
2022-11-18T04:33:44.883Z,58.73
2022-11-18T04:36:12.479Z,54.53
2022-11-18T04:38:41.652Z,59.73
2022-11-18T04:41:09.776Z,70.00
2022-11-18T04:43:37.420Z,57.20
2022-11-18T04:46:07.368Z,57.67
2022-11-18T04:48:35.280Z,57.87
2022-11-18T04:51:03.846Z,58.23
2022-11-18T04:53:32.200Z,64.60
2022-11-18T04:56:06.646Z,74.70
2022-11-18T04:58:34.894Z,61.13
2022-11-18T05:01:02.481Z,70.43
2022-11-18T05:03:30.352Z,72.97
2022-11-18T05:06:02.237Z,66.87
2022-11-18T05:08:29.916Z,67.50
2022-11-18T05:11:17.711Z,61.07
2022-11-18T05:13:45.775Z,67.37
2022-11-18T05:16:13.480Z,70.90
2022-11-18T05:18:41.187Z,71.37
2022-11-18T05:21:08.978Z,69.80
2022-11-18T05:23:36.700Z,77.10
2022-11-18T05:26:04.673Z,98.20
2022-11-18T05:28:32.589Z,78.20
2022-11-18T05:31:01.771Z,74.93
2022-11-18T05:33:29.773Z,73.20
2022-11-18T05:35:57.386Z,77.90
2022-11-18T05:38:25.481Z,75.70
2022-11-18T05:40:53.262Z,75.23
2022-11-18T05:43:20.151Z,76.83
2022-11-18T05:45:51.037Z,66.10
2022-11-18T05:48:20.426Z,69.77
2022-11-18T05:50:48.803Z,65.93
2022-11-18T05:53:16.992Z,66.53
2022-11-18T05:55:49.057Z,63.83
2022-11-18T05:58:16.988Z,64.80
2022-11-18T06:00:46.197Z,63.90
2022-11-18T06:03:17.775Z,67.17
2022-11-18T06:05:47.112Z,60.80
2022-11-18T06:08:16.022Z,60.40
2022-11-18T06:11:06.936Z,57.50
2022-11-18T06:13:35.766Z,57.67
2022-11-18T06:16:03.622Z,52.03
2022-11-18T06:18:32.712Z,54.47
2022-11-18T06:21:04.042Z,53.27
2022-11-18T06:23:32.802Z,50.00
2022-11-18T06:26:00.476Z,49.43
2022-11-18T06:28:28.881Z,42.03
2022-11-18T06:30:56.830Z,46.10
2022-11-18T06:33:24.588Z,44.10
2022-11-18T06:35:52.192Z,40.97
2022-11-18T06:38:24.558Z,43.23
2022-11-18T06:40:52.828Z,41.37
2022-11-18T06:43:37.967Z,39.93
2022-11-18T06:46:23.792Z,42.80
2022-11-18T06:48:52.071Z,37.93
2022-11-18T06:51:19.650Z,40.43
2022-11-18T06:53:48.710Z,41.13
2022-11-18T06:56:17.444Z,41.60
2022-11-18T06:58:45.335Z,42.73
2022-11-18T07:01:13.626Z,44.20
2022-11-18T07:03:41.406Z,48.17
2022-11-18T07:06:09.604Z,44.80
2022-11-18T07:08:37.821Z,44.43
2022-11-18T07:11:07.841Z,47.80
2022-11-18T07:13:40.583Z,46.80
2022-11-18T07:16:12.647Z,45.10
2022-11-18T07:18:41.462Z,44.13
2022-11-18T07:21:10.088Z,43.93
2022-11-18T07:23:37.839Z,45.30
2022-11-18T07:26:07.443Z,46.27
2022-11-18T07:28:35.904Z,43.90
2022-11-18T07:31:04.586Z,43.97
2022-11-18T07:33:32.798Z,43.97
2022-11-18T07:36:05.459Z,39.97
2022-11-18T07:38:34.579Z,40.63
2022-11-18T07:41:08.174Z,41.90
2022-11-18T07:43:36.035Z,39.93
2022-11-18T07:46:11.488Z,43.57
2022-11-18T07:48:39.694Z,47.90
2022-11-18T07:51:07.461Z,41.30
2022-11-18T07:53:36.223Z,40.10
2022-11-18T07:56:04.702Z,42.23
2022-11-18T07:58:34.086Z,43.00
2022-11-18T08:01:08.843Z,41.43
2022-11-18T08:03:58.646Z,39.03
2022-11-18T08:06:26.628Z,37.00
2022-11-18T08:08:54.297Z,43.17
2022-11-18T08:11:23.094Z,39.57
2022-11-18T08:13:52.666Z,40.37
2022-11-18T08:16:21.130Z,35.50
2022-11-18T08:18:49.118Z,43.30
2022-11-18T08:21:17.695Z,40.07
2022-11-18T08:23:49.889Z,40.33
2022-11-18T08:26:18.003Z,38.10
2022-11-18T08:28:46.246Z,37.90
2022-11-18T08:31:16.036Z,38.87
2022-11-18T08:33:43.690Z,34.10
2022-11-18T08:36:13.919Z,36.40
2022-11-18T08:38:41.565Z,32.90
2022-11-18T08:41:11.847Z,35.10
2022-11-18T08:43:39.777Z,32.10
2022-11-18T08:46:07.581Z,34.07
2022-11-18T08:48:36.613Z,31.50
2022-11-18T08:51:04.388Z,34.70
2022-11-18T08:53:32.857Z,34.60
2022-11-18T08:56:01.511Z,31.33
2022-11-18T08:58:29.382Z,37.17
2022-11-18T09:00:57.027Z,33.30
2022-11-18T09:03:26.508Z,32.50
2022-11-18T09:05:55.511Z,32.00
2022-11-18T09:08:26.797Z,32.33
2022-11-18T09:10:54.438Z,32.33
2022-11-18T09:16:10.162Z,31.07
2022-11-18T09:18:37.900Z,33.70
2022-11-18T09:21:07.986Z,29.73
2022-11-18T09:23:37.700Z,32.20
2022-11-18T09:26:06.303Z,31.00
2022-11-18T09:28:34.886Z,35.10
2022-11-18T09:31:05.073Z,32.27
2022-11-18T09:33:34.590Z,33.67
2022-11-18T09:36:02.803Z,33.70
2022-11-18T09:38:32.091Z,32.63
2022-11-18T09:41:04.609Z,33.60
2022-11-18T09:43:36.877Z,31.20
2022-11-18T09:46:07.466Z,27.80
2022-11-18T09:48:55.454Z,29.47
2022-11-18T09:51:26.354Z,27.97
2022-11-18T09:53:55.699Z,26.43
2022-11-18T09:56:23.377Z,25.03
2022-11-18T09:58:51.409Z,23.40
2022-11-18T10:01:20.909Z,23.67
2022-11-18T10:03:48.775Z,23.40
2022-11-18T10:06:23.390Z,20.67
2022-11-18T10:08:59.347Z,18.10
2022-11-18T10:11:29.626Z,20.80
2022-11-18T10:14:02.896Z,17.60
2022-11-18T10:16:37.065Z,19.33
2022-11-18T10:19:10.670Z,21.33
2022-11-18T10:21:43.298Z,21.17
2022-11-18T10:24:17.027Z,16.37
2022-11-18T10:26:44.973Z,16.00
2022-11-18T10:29:12.565Z,21.23
2022-11-18T10:31:41.343Z,19.87
2022-11-18T10:34:11.571Z,15.37
2022-11-18T10:36:39.610Z,16.90
2022-11-18T10:39:13.439Z,15.80
2022-11-18T10:41:45.472Z,15.47
2022-11-18T10:44:34.296Z,17.37
2022-11-18T10:47:16.253Z,19.33
2022-11-18T10:49:44.634Z,23.87
2022-11-18T10:52:14.112Z,16.80
2022-11-18T10:54:42.039Z,18.47
2022-11-18T10:57:15.810Z,17.50
2022-11-18T10:59:47.670Z,19.37
2022-11-18T11:02:18.583Z,16.03
2022-11-18T11:04:47.249Z,16.47
2022-11-18T11:07:16.343Z,15.77
2022-11-18T11:09:44.013Z,20.13
2022-11-18T11:12:16.839Z,18.47
2022-11-18T11:14:50.893Z,18.53
2022-11-18T11:17:21.206Z,16.90
2022-11-18T11:19:52.037Z,21.50
2022-11-18T11:22:19.897Z,15.80
2022-11-18T11:24:49.540Z,22.63
2022-11-18T11:30:31.815Z,16.47
2022-11-18T11:33:11.422Z,18.67
2022-11-18T11:35:45.021Z,18.73
2022-11-18T11:38:15.840Z,20.13
2022-11-18T11:40:47.305Z,20.00
2022-11-18T11:43:24.388Z,20.93
2022-11-18T11:46:01.326Z,21.27
2022-11-18T11:48:33.645Z,22.80
2022-11-18T11:51:05.230Z,19.67
2022-11-18T11:53:58.497Z,16.90
2022-11-18T11:56:31.574Z,17.10
2022-11-18T11:59:17.539Z,18.03
2022-11-18T12:01:52.692Z,16.47
2022-11-18T12:04:29.774Z,17.30
2022-11-18T12:06:59.049Z,17.87
2022-11-18T12:09:28.491Z,15.90
2022-11-18T12:11:57.929Z,17.70
2022-11-18T12:14:29.112Z,17.30
2022-11-18T12:17:02.513Z,19.07
2022-11-18T12:19:30.203Z,17.00
2022-11-18T12:22:00.395Z,15.07
2022-11-18T12:24:32.380Z,14.67
2022-11-18T12:27:00.701Z,14.03
2022-11-18T12:29:32.666Z,14.23
2022-11-18T12:32:02.314Z,13.43
2022-11-18T12:34:32.577Z,16.40
2022-11-18T12:37:30.276Z,13.90
2022-11-18T12:39:59.348Z,15.20
2022-11-18T12:42:55.216Z,15.57
2022-11-18T12:45:46.972Z,15.47
2022-11-18T12:48:29.203Z,13.43
2022-11-18T12:50:57.913Z,15.10
2022-11-18T12:53:32.521Z,12.80
2022-11-18T12:56:00.615Z,12.53
2022-11-18T12:58:29.194Z,11.63
2022-11-18T13:01:08.092Z,12.20
2022-11-18T13:03:37.209Z,12.80
2022-11-18T13:06:07.504Z,13.10
2022-11-18T13:08:36.008Z,11.27
2022-11-18T13:11:26.476Z,13.27
2022-11-18T13:14:15.847Z,12.83
2022-11-18T13:17:07.394Z,12.60
2022-11-18T13:19:36.893Z,11.60
2022-11-18T13:22:22.390Z,12.63
2022-11-18T13:24:51.269Z,12.90
2022-11-18T13:27:30.586Z,14.80
2022-11-18T13:30:03.275Z,15.17
2022-11-18T13:32:31.765Z,12.70
2022-11-18T13:35:08.387Z,15.67
2022-11-18T13:37:36.506Z,11.30
2022-11-18T13:40:04.523Z,14.10
2022-11-18T13:42:32.624Z,12.70
2022-11-18T13:45:01.058Z,17.23
2022-11-18T13:47:33.511Z,13.87
2022-11-18T13:50:06.161Z,9.77
2022-11-18T13:52:36.819Z,13.00
2022-11-18T13:55:09.258Z,10.20
2022-11-18T13:57:37.664Z,13.83
2022-11-18T14:00:08.065Z,10.77
2022-11-18T14:02:39.775Z,11.53
2022-11-18T14:05:21.493Z,11.40
2022-11-18T14:07:57.674Z,10.30
2022-11-18T14:10:32.187Z,13.70
2022-11-18T14:13:04.432Z,11.90
2022-11-18T14:15:42.141Z,15.17
2022-11-18T14:18:17.984Z,10.93
2022-11-18T14:20:52.370Z,15.33
2022-11-18T14:23:21.479Z,8.27
2022-11-18T14:25:49.318Z,11.37
2022-11-18T14:28:21.412Z,10.97
2022-11-18T14:30:59.882Z,9.50
2022-11-18T14:33:28.858Z,12.67
2022-11-18T14:35:59.596Z,10.07
2022-11-18T14:38:48.127Z,11.20
2022-11-18T14:41:44.258Z,12.50
2022-11-18T14:44:13.469Z,11.23
2022-11-18T14:46:42.441Z,12.80
2022-11-18T14:49:13.711Z,11.33
2022-11-18T14:51:42.832Z,14.07
2022-11-18T14:54:13.244Z,10.20
2022-11-18T14:56:40.828Z,17.73
2022-11-18T14:59:08.433Z,14.43
2022-11-18T15:01:36.643Z,11.20
2022-11-18T15:04:05.066Z,11.60
2022-11-18T15:06:33.075Z,6.80
2022-11-18T15:09:02.083Z,8.03
2022-11-18T15:11:29.722Z,8.00
2022-11-18T15:13:57.376Z,7.60
2022-11-18T15:16:26.239Z,7.10
2022-11-18T15:18:54.960Z,8.07
2022-11-18T15:21:22.928Z,7.97
2022-11-18T15:23:51.038Z,9.57
2022-11-18T15:26:21.189Z,10.80
2022-11-18T15:28:49.007Z,8.37
2022-11-18T15:31:17.091Z,9.40
2022-11-18T15:33:45.900Z,6.60
2022-11-18T15:36:14.769Z,8.23
2022-11-18T15:38:42.992Z,7.90
2022-11-18T15:41:15.344Z,9.23
2022-11-18T15:43:44.316Z,10.33
2022-11-18T15:46:11.945Z,9.43
2022-11-18T15:48:39.859Z,13.20
2022-11-18T15:51:11.630Z,15.30
2022-11-18T15:53:40.991Z,10.80
2022-11-18T15:56:15.047Z,10.53
2022-11-18T15:58:44.269Z,11.63
2022-11-18T16:01:12.279Z,10.70
2022-11-18T16:03:39.903Z,11.80
2022-11-18T16:06:07.724Z,10.70
2022-11-18T16:08:35.368Z,10.30
2022-11-18T16:11:20.789Z,13.20
2022-11-18T16:13:49.790Z,15.47
2022-11-18T16:16:20.630Z,18.00
2022-11-18T16:18:48.212Z,15.13
2022-11-18T16:21:15.880Z,17.40
2022-11-18T16:23:43.514Z,16.77
2022-11-18T16:26:11.199Z,14.40
2022-11-18T16:28:39.876Z,12.83
2022-11-18T16:31:26.429Z,16.23
2022-11-18T16:33:54.080Z,18.80
2022-11-18T16:36:26.451Z,17.37
2022-11-18T16:38:54.160Z,16.00
2022-11-18T16:41:33.965Z,14.27
2022-11-18T16:44:03.386Z,13.70
2022-11-18T16:46:33.059Z,17.07
2022-11-18T16:49:01.058Z,19.10
2022-11-18T16:51:29.899Z,14.47
2022-11-18T16:54:00.082Z,22.40
2022-11-18T16:56:29.996Z,20.23
2022-11-18T16:58:58.332Z,16.37
2022-11-18T17:01:29.385Z,15.33
2022-11-18T17:04:00.327Z,13.40
2022-11-18T17:06:28.887Z,15.00
2022-11-18T17:08:57.479Z,14.17
2022-11-18T17:11:25.227Z,18.83
2022-11-18T17:13:57.728Z,18.33
2022-11-18T17:16:26.804Z,17.47
2022-11-18T17:18:55.962Z,14.97
2022-11-18T17:21:25.332Z,16.97
2022-11-18T17:23:53.517Z,13.70
2022-11-18T17:26:22.600Z,18.17
2022-11-18T17:28:52.348Z,15.70
2022-11-18T17:31:20.612Z,16.10
2022-11-18T17:33:48.789Z,12.57
2022-11-18T17:36:17.254Z,13.20
2022-11-18T17:38:47.070Z,13.60
2022-11-18T17:41:36.007Z,15.40
2022-11-18T17:44:05.009Z,12.90
2022-11-18T17:46:37.780Z,21.20
2022-11-18T17:49:11.844Z,16.90
2022-11-18T17:51:39.594Z,31.30
2022-11-18T17:54:09.065Z,21.53
2022-11-18T17:56:37.097Z,21.37
2022-11-18T17:59:04.900Z,20.47
2022-11-18T18:01:32.743Z,19.87
2022-11-18T18:04:01.298Z,19.47
2022-11-18T18:06:29.056Z,20.37
2022-11-18T18:08:57.249Z,19.60
2022-11-18T18:11:27.207Z,21.23
2022-11-18T18:14:12.245Z,26.53
2022-11-18T18:16:41.024Z,19.60
2022-11-18T18:19:09.234Z,20.90
2022-11-18T18:21:37.130Z,17.73
2022-11-18T18:24:05.261Z,17.67
2022-11-18T18:26:34.657Z,19.77
2022-11-18T18:29:02.703Z,39.50
2022-11-18T18:31:33.936Z,17.73
2022-11-18T18:34:02.085Z,19.13
2022-11-18T18:36:29.822Z,19.73
2022-11-18T18:38:57.641Z,19.60
2022-11-18T18:41:27.310Z,22.60
2022-11-18T18:43:57.847Z,17.43
2022-11-18T18:46:34.204Z,19.33
2022-11-18T18:49:03.777Z,21.37
2022-11-18T18:51:32.916Z,17.20
2022-11-18T18:54:00.626Z,20.13
2022-11-18T18:56:28.831Z,20.10
2022-11-18T18:58:58.654Z,18.30
2022-11-18T19:01:27.697Z,18.43
2022-11-18T19:03:56.747Z,21.70
2022-11-18T19:06:51.711Z,20.37
2022-11-18T19:09:18.220Z,22.27
2022-11-18T19:12:03.914Z,22.90
2022-11-18T19:14:34.429Z,26.10
2022-11-18T19:17:09.180Z,22.07
2022-11-18T19:20:05.296Z,21.60
2022-11-18T19:22:34.056Z,25.97
2022-11-18T19:25:04.113Z,19.27
2022-11-18T19:27:38.725Z,22.33
2022-11-18T19:30:09.106Z,21.50
2022-11-18T19:32:37.074Z,20.13
2022-11-18T19:37:53.534Z,18.33
2022-11-18T19:40:21.314Z,15.73
2022-11-18T19:42:50.203Z,17.10
2022-11-18T19:45:19.566Z,19.77
2022-11-18T19:47:48.480Z,26.50
2022-11-18T19:50:17.557Z,26.57
2022-11-18T19:52:49.069Z,31.43
2022-11-18T19:55:17.416Z,22.47
2022-11-18T19:57:45.922Z,20.33
2022-11-18T20:00:17.425Z,24.77
2022-11-18T20:02:46.595Z,24.00
2022-11-18T20:05:32.197Z,31.90
2022-11-18T20:08:00.228Z,28.03
2022-11-18T20:10:28.310Z,23.13
2022-11-18T20:12:58.045Z,22.83
2022-11-18T20:15:25.884Z,22.60
2022-11-18T20:17:55.513Z,25.00
2022-11-18T20:20:23.397Z,23.80
2022-11-18T20:22:54.073Z,19.60
2022-11-18T20:25:21.894Z,25.63
2022-11-18T20:27:49.542Z,29.30
2022-11-18T20:30:18.107Z,35.77
2022-11-18T20:32:46.857Z,26.80
2022-11-18T20:35:15.990Z,25.57
2022-11-18T20:37:43.845Z,28.17
2022-11-18T20:40:12.118Z,27.60
2022-11-18T20:42:57.264Z,32.37
2022-11-18T20:45:25.446Z,29.47
2022-11-18T20:47:53.037Z,27.90
2022-11-18T20:50:22.297Z,26.93
2022-11-18T20:52:49.950Z,38.90
2022-11-18T20:55:17.947Z,24.70
2022-11-18T20:57:46.001Z,29.03
2022-11-18T21:00:14.129Z,28.47
2022-11-18T21:02:41.950Z,25.23
2022-11-18T21:05:09.755Z,32.43
2022-11-18T21:07:39.076Z,27.30
2022-11-18T21:10:08.058Z,32.90
2022-11-18T21:12:35.750Z,26.20
2022-11-18T21:15:03.713Z,21.60
2022-11-18T21:17:33.232Z,21.57
2022-11-18T21:20:21.445Z,23.13
2022-11-18T21:22:49.583Z,20.27
2022-11-18T21:25:18.335Z,19.03
2022-11-18T21:27:46.941Z,17.77
2022-11-18T21:30:14.794Z,18.60
2022-11-18T21:32:43.044Z,20.50
2022-11-18T21:35:10.713Z,18.40
2022-11-18T21:37:38.291Z,18.53
2022-11-18T21:40:08.256Z,16.40
2022-11-18T21:42:35.945Z,13.97
2022-11-18T21:45:03.520Z,15.77
2022-11-18T21:47:31.543Z,14.20
2022-11-18T21:49:59.439Z,16.50
2022-11-18T21:52:27.203Z,17.50
2022-11-18T21:54:54.886Z,18.90
2022-11-18T21:57:23.900Z,24.30
2022-11-18T21:59:51.751Z,23.30
2022-11-18T22:02:20.029Z,25.93
2022-11-18T22:04:53.515Z,22.83
2022-11-18T22:07:21.787Z,30.33
2022-11-18T22:09:49.473Z,26.43
2022-11-18T22:12:17.332Z,24.90
2022-11-18T22:14:46.367Z,21.30
2022-11-18T22:17:14.099Z,24.93
2022-11-18T22:19:41.855Z,27.33
2022-11-18T22:22:10.081Z,20.53
2022-11-18T22:24:37.803Z,24.70
2022-11-18T22:27:10.984Z,24.33
2022-11-18T22:29:39.404Z,21.00
2022-11-18T22:32:08.545Z,23.80
2022-11-18T22:34:36.458Z,19.90
2022-11-18T22:37:04.397Z,19.13
2022-11-18T22:39:32.241Z,20.10
2022-11-18T22:42:17.684Z,17.93
2022-11-18T22:44:45.542Z,19.07
2022-11-18T22:47:14.556Z,19.93
2022-11-18T22:49:42.602Z,19.77
2022-11-18T22:52:10.198Z,19.90
2022-11-18T22:54:39.629Z,20.07
2022-11-18T22:57:09.065Z,23.93
2022-11-18T22:59:36.749Z,17.27
2022-11-18T23:02:04.775Z,22.07
2022-11-18T23:04:33.732Z,19.37
2022-11-18T23:07:01.582Z,19.67
2022-11-18T23:09:29.293Z,18.13
2022-11-18T23:12:22.838Z,21.03
2022-11-18T23:14:50.645Z,24.17
2022-11-18T23:17:18.308Z,17.47
2022-11-18T23:19:47.487Z,18.00
2022-11-18T23:22:15.288Z,22.03
2022-11-18T23:24:42.989Z,19.47
2022-11-18T23:27:10.970Z,22.83
2022-11-18T23:29:38.726Z,20.33
2022-11-18T23:32:06.379Z,21.50
2022-11-18T23:34:34.206Z,21.43
2022-11-18T23:37:03.129Z,22.60
2022-11-18T23:39:30.751Z,20.20
2022-11-18T23:41:58.489Z,19.80
2022-11-18T23:44:40.087Z,22.63
2022-11-18T23:47:09.461Z,22.10
2022-11-18T23:49:37.147Z,21.03
2022-11-18T23:52:06.547Z,23.47
2022-11-18T23:54:34.669Z,24.20
2022-11-18T23:57:05.219Z,23.50
2022-11-18T23:59:33.497Z,19.80
